Terminal Aerodrome Forecast
Issued by NWS

Home | Current Version | Previous Version | Text Only | Print | Product List | Glossary On
Versions: 1 2 3 4 5 6 7 8 9 10 11 12
560
FTAK31 PAJN 241124
TAFASI
TAF
PASI 241124Z 2412/2512 06004KT P6SM FEW040 OVC150
     FM242100 34005KT P6SM VCSH SCT040 OVC060
     FM250000 34006KT 6SM -RA SCT025 OVC040=

USA.gov is the U.S. government's official web portal to all federal, state and local government web resources and services.